Time;durP1;ratioP1;P1;durP2;ratioP2;P2;SDS_P1;SDS_P2;PMS_P1;PMS_P2;Temp;Humidity;BMP_temperature;BMP_pressure;BME280_temperature;BME280_humidity;BME280_pressure;Samples;Min_cycle;Max_cycle;Signal;HPM_P1;HPM_P2
2023/01/17 00:01:59;;;;;;;15.38;1.65;;;4.10;99.90;;;;;;5050673;28;20029;-74
2023/01/17 00:09:59;;;;;;;8.90;1.20;;;4.00;99.90;;;;;;5050340;28;20035;-74
2023/01/17 00:12:29;;;;;;;6.50;0.85;;;4.00;99.90;;;;;;5037852;28;20033;-75
2023/01/17 00:14:56;;;;;;;2.88;0.70;;;3.90;99.90;;;;;;5044867;28;20595;-74
2023/01/17 00:17:23;;;;;;;5.72;0.88;;;3.90;99.90;;;;;;5050591;28;20064;-74
2023/01/17 01:34:53;;;;;;;5.10;0.70;;;3.30;99.90;;;;;;5052942;28;20036;-74
2023/01/17 01:37:19;;;;;;;6.53;0.98;;;3.40;99.90;;;;;;5049498;28;20267;-74
2023/01/17 01:39:45;;;;;;;4.72;0.75;;;3.30;99.90;;;;;;5049404;28;20428;-74
2023/01/17 01:42:15;;;;;;;10.85;1.10;;;3.40;99.90;;;;;;5053048;28;20407;-74
2023/01/17 01:44:50;;;;;;;5.43;0.80;;;3.40;99.90;;;;;;5053335;28;20021;-74
2023/01/17 01:47:42;;;;;;;6.00;1.02;;;3.40;99.90;;;;;;5047911;28;20053;-74
2023/01/17 01:50:11;;;;;;;3.53;0.70;;;3.40;99.90;;;;;;5033278;28;20029;-74
2023/01/17 01:52:42;;;;;;;5.32;0.60;;;3.30;99.90;;;;;;5046425;28;20033;-73
2023/01/17 01:55:31;;;;;;;3.30;0.77;;;3.30;99.90;;;;;;5032680;28;20103;-74
2023/01/17 01:58:03;;;;;;;7.47;0.80;;;3.30;99.90;;;;;;5033299;28;20524;-74
2023/01/17 02:00:34;;;;;;;7.00;1.15;;;3.30;99.90;;;;;;5047971;28;20043;-74
2023/01/17 02:03:04;;;;;;;6.65;0.80;;;3.20;99.90;;;;;;5047248;28;20037;-74
2023/01/17 02:05:32;;;;;;;7.13;0.80;;;3.20;99.90;;;;;;5052418;28;20025;-74
2023/01/17 02:08:06;;;;;;;4.70;0.82;;;3.10;99.90;;;;;;5053168;28;20048;-74
2023/01/17 02:10:37;;;;;;;3.63;0.83;;;3.10;99.90;;;;;;5037659;28;20103;-74
2023/01/17 02:13:03;;;;;;;5.68;0.70;;;3.10;99.90;;;;;;5047146;28;20017;-74
2023/01/17 02:15:57;;;;;;;5.25;0.73;;;3.00;99.90;;;;;;5052953;28;20846;-74
2023/01/17 02:18:32;;;;;;;7.03;0.68;;;3.00;99.90;;;;;;5036508;28;20065;-74
2023/01/17 02:21:18;;;;;;;4.50;0.75;;;3.00;99.90;;;;;;5032578;28;20021;-74
2023/01/17 02:24:05;;;;;;;3.22;0.50;;;3.00;99.90;;;;;;5036315;28;20027;-74
2023/01/17 02:27:06;;;;;;;5.78;0.88;;;3.00;99.90;;;;;;5052608;28;20036;-74
2023/01/17 02:29:46;;;;;;;6.82;0.90;;;3.00;99.90;;;;;;5033302;28;20032;-74
2023/01/17 02:32:12;;;;;;;7.60;0.85;;;3.00;99.90;;;;;;5032593;28;20033;-74
2023/01/17 02:34:48;;;;;;;7.07;1.02;;;3.00;99.90;;;;;;5048046;28;20024;-74
2023/01/17 02:37:29;;;;;;;11.52;0.95;;;3.00;99.90;;;;;;5032602;28;20464;-74
2023/01/17 02:40:05;;;;;;;11.13;1.33;;;3.00;99.90;;;;;;5043440;28;20348;-74
2023/01/17 02:42:36;;;;;;;12.00;1.48;;;3.10;99.90;;;;;;5033839;28;20024;-74
2023/01/17 02:45:03;;;;;;;5.15;0.82;;;3.10;99.90;;;;;;5052350;28;20108;-74
2023/01/17 02:47:30;;;;;;;8.05;0.95;;;3.20;99.90;;;;;;5037790;28;20155;-74
2023/01/17 02:50:01;;;;;;;10.27;1.20;;;3.10;99.90;;;;;;5043092;28;20029;-74
2023/01/17 02:52:48;;;;;;;5.47;1.30;;;3.10;99.90;;;;;;5048057;28;20036;-74
2023/01/17 02:55:43;;;;;;;4.88;1.02;;;3.10;99.90;;;;;;5051979;28;20075;-74
2023/01/17 02:58:41;;;;;;;5.40;0.82;;;3.10;99.90;;;;;;5038362;28;20017;-74
2023/01/17 03:01:44;;;;;;;5.55;0.98;;;3.10;99.90;;;;;;4996266;28;20079;-74
2023/01/17 03:04:20;;;;;;;5.07;1.02;;;3.10;99.90;;;;;;5041568;28;20108;-74
2023/01/17 03:06:57;;;;;;;7.68;0.88;;;3.10;99.90;;;;;;5048096;28;20025;-74
2023/01/17 03:09:24;;;;;;;4.05;0.90;;;3.10;99.90;;;;;;5041761;28;20044;-74
2023/01/17 03:11:51;;;;;;;7.15;0.80;;;3.10;99.90;;;;;;5047747;28;20179;-74
2023/01/17 03:14:16;;;;;;;7.05;0.90;;;3.10;99.90;;;;;;5035443;28;20025;-74
2023/01/17 03:16:42;;;;;;;10.82;1.05;;;3.00;99.90;;;;;;5045011;28;20020;-75
2023/01/17 03:19:09;;;;;;;4.75;0.80;;;3.00;99.90;;;;;;5035400;28;20018;-75
2023/01/17 03:21:34;;;;;;;11.40;1.17;;;3.00;99.90;;;;;;5038645;28;20033;-74
2023/01/17 03:24:01;;;;;;;5.05;1.00;;;3.00;99.90;;;;;;5038393;28;20028;-75
2023/01/17 03:26:27;;;;;;;7.63;1.00;;;3.00;99.90;;;;;;5038880;28;20484;-74
2023/01/17 03:28:53;;;;;;;8.02;1.13;;;3.00;99.90;;;;;;5050398;28;20032;-75
2023/01/17 03:31:21;;;;;;;8.40;1.30;;;3.00;99.90;;;;;;5040428;28;20108;-74
2023/01/17 03:33:47;;;;;;;9.35;1.00;;;3.10;99.90;;;;;;5048786;28;20551;-75
2023/01/17 03:36:12;;;;;;;10.60;1.17;;;3.10;99.90;;;;;;5030072;28;20105;-75
2023/01/17 03:38:39;;;;;;;7.55;1.20;;;3.20;99.90;;;;;;5051561;28;20018;-73
2023/01/17 03:41:05;;;;;;;5.63;1.02;;;3.20;99.90;;;;;;5050744;28;20029;-73
2023/01/17 03:43:31;;;;;;;13.15;1.40;;;3.20;99.90;;;;;;5050835;28;20025;-73
2023/01/17 03:46:05;;;;;;;7.10;1.08;;;3.20;99.90;;;;;;5046262;28;20017;-73
2023/01/17 03:48:31;;;;;;;8.15;1.17;;;3.20;99.90;;;;;;5031314;28;20125;-72
2023/01/17 03:50:57;;;;;;;6.75;1.10;;;3.20;99.90;;;;;;5045138;28;20034;-73
2023/01/17 03:53:23;;;;;;;5.82;1.00;;;3.20;99.90;;;;;;5031765;28;20018;-73
2023/01/17 03:55:49;;;;;;;10.13;1.50;;;3.20;99.90;;;;;;5046923;28;20025;-73
2023/01/17 03:58:15;;;;;;;10.18;1.45;;;3.20;99.90;;;;;;5051389;28;20021;-73
2023/01/17 04:00:41;;;;;;;8.82;1.35;;;3.10;99.90;;;;;;5051117;28;20013;-73
2023/01/17 04:03:07;;;;;;;8.07;1.17;;;3.10;99.90;;;;;;5050774;28;20621;-73
2023/01/17 04:05:33;;;;;;;8.50;1.20;;;3.10;99.90;;;;;;5051705;28;20072;-73
2023/01/17 04:07:58;;;;;;;12.23;1.27;;;3.10;99.90;;;;;;5050742;28;20484;-73
2023/01/17 04:10:24;;;;;;;11.82;1.58;;;3.10;99.90;;;;;;5048818;28;20395;-73
2023/01/17 04:12:50;;;;;;;8.13;0.93;;;3.10;99.90;;;;;;5036022;28;20038;-73
2023/01/17 04:15:16;;;;;;;7.65;1.67;;;3.00;99.90;;;;;;5043531;28;20032;-74
2023/01/17 04:17:42;;;;;;;7.78;0.98;;;3.10;99.90;;;;;;5048785;28;20046;-73
2023/01/17 04:20:24;;;;;;;7.28;1.13;;;3.00;99.90;;;;;;5054898;28;20472;-73
2023/01/17 04:22:49;;;;;;;6.80;1.05;;;3.00;99.90;;;;;;5055213;28;20376;-73
2023/01/17 04:25:15;;;;;;;8.35;1.20;;;3.00;99.90;;;;;;5054674;28;20047;-73
2023/01/17 04:27:41;;;;;;;6.90;1.27;;;3.00;99.90;;;;;;5043377;28;20021;-73
2023/01/17 04:30:07;;;;;;;16.15;1.40;;;3.00;99.90;;;;;;5038609;28;20055;-73
2023/01/17 04:32:32;;;;;;;8.23;1.38;;;3.00;99.90;;;;;;5054684;28;20114;-73
2023/01/17 04:34:58;;;;;;;11.63;1.23;;;3.00;99.90;;;;;;5054840;28;20021;-73
2023/01/17 04:37:23;;;;;;;7.43;1.08;;;3.00;99.90;;;;;;5054872;28;20036;-73
2023/01/17 04:39:49;;;;;;;11.07;1.40;;;3.00;99.90;;;;;;5040746;28;20075;-73
2023/01/17 04:42:15;;;;;;;12.02;2.47;;;3.00;99.90;;;;;;5054627;28;20530;-73
2023/01/17 04:44:41;;;;;;;11.88;1.92;;;3.00;99.90;;;;;;5054792;28;20029;-73
2023/01/17 04:47:06;;;;;;;8.93;1.80;;;3.00;99.90;;;;;;5048483;28;20028;-73
2023/01/17 04:49:32;;;;;;;8.90;1.20;;;3.00;99.90;;;;;;5046824;28;20075;-73
2023/01/17 04:51:58;;;;;;;12.02;1.42;;;3.00;99.90;;;;;;5052900;28;20132;-73
2023/01/17 04:54:24;;;;;;;9.43;1.35;;;3.00;99.90;;;;;;5054549;28;20017;-73
2023/01/17 04:56:49;;;;;;;9.38;1.30;;;3.10;99.90;;;;;;5054105;28;20108;-73
2023/01/17 04:59:15;;;;;;;7.53;1.10;;;3.10;99.90;;;;;;5046558;28;20060;-73
2023/01/17 05:01:41;;;;;;;9.35;1.30;;;3.10;99.90;;;;;;5048446;28;20029;-73
2023/01/17 05:04:07;;;;;;;6.18;1.17;;;3.10;99.90;;;;;;5034309;28;20372;-73
2023/01/17 05:06:33;;;;;;;5.35;1.10;;;3.00;99.90;;;;;;5046337;28;20025;-73
2023/01/17 05:08:59;;;;;;;5.85;1.00;;;3.00;99.90;;;;;;5040208;28;20475;-73
2023/01/17 05:11:25;;;;;;;11.07;1.80;;;3.00;99.90;;;;;;5039930;28;20112;-73
2023/01/17 05:13:50;;;;;;;9.18;1.35;;;3.00;99.90;;;;;;5053904;28;20088;-73
2023/01/17 05:16:19;;;;;;;8.88;1.33;;;3.00;99.90;;;;;;5039064;28;20125;-73
2023/01/17 05:18:45;;;;;;;5.85;1.20;;;3.00;99.90;;;;;;5032625;28;20071;-74
2023/01/17 05:21:11;;;;;;;12.80;1.50;;;3.00;99.90;;;;;;5046605;28;20030;-74
2023/01/17 05:23:37;;;;;;;8.57;1.40;;;3.00;99.90;;;;;;5040357;28;20070;-73
2023/01/17 05:26:03;;;;;;;6.65;1.45;;;3.00;99.90;;;;;;5039038;28;20068;-73
2023/01/17 05:28:28;;;;;;;10.10;1.50;;;3.00;99.90;;;;;;5033142;28;20049;-73
2023/01/17 05:30:54;;;;;;;10.15;1.33;;;3.00;99.90;;;;;;5015588;28;20025;-73
2023/01/17 05:33:19;;;;;;;6.88;1.50;;;3.00;99.90;;;;;;5038544;28;20361;-73
2023/01/17 05:35:45;;;;;;;8.55;1.40;;;3.00;99.90;;;;;;5043230;28;20464;-73
2023/01/17 05:38:11;;;;;;;8.82;1.23;;;3.00;99.90;;;;;;5050361;28;20720;-74
2023/01/17 05:40:36;;;;;;;7.35;1.45;;;3.00;99.90;;;;;;5053920;28;20024;-73
2023/01/17 05:43:02;;;;;;;6.05;1.48;;;3.00;99.90;;;;;;5053426;28;20067;-73
2023/01/17 05:45:30;;;;;;;6.63;0.93;;;3.00;99.90;;;;;;5047958;28;20362;-73
2023/01/17 05:47:57;;;;;;;6.95;1.25;;;2.90;99.90;;;;;;5040233;28;20061;-73
2023/01/17 05:50:25;;;;;;;7.43;1.25;;;2.90;99.90;;;;;;5051973;28;20472;-73
2023/01/17 05:52:54;;;;;;;8.25;1.30;;;2.90;99.90;;;;;;5041482;28;20460;-73
2023/01/17 05:55:21;;;;;;;8.98;1.20;;;2.90;99.90;;;;;;5044389;28;20048;-73
2023/01/17 05:57:47;;;;;;;7.25;1.20;;;2.90;99.90;;;;;;5047466;28;20021;-73
2023/01/17 06:00:15;;;;;;;10.25;1.25;;;2.80;99.90;;;;;;5038214;28;20121;-73
2023/01/17 06:02:41;;;;;;;10.60;1.30;;;2.80;99.90;;;;;;5038567;28;20037;-73
2023/01/17 06:05:07;;;;;;;10.10;1.75;;;2.70;99.90;;;;;;5042579;28;20063;-73
2023/01/17 06:07:33;;;;;;;7.22;1.48;;;2.80;99.90;;;;;;5035602;28;20017;-74
2023/01/17 06:09:59;;;;;;;6.53;1.30;;;2.70;99.90;;;;;;5041062;28;20035;-74
2023/01/17 06:12:24;;;;;;;13.63;1.70;;;2.70;99.90;;;;;;5045335;28;20029;-73
2023/01/17 06:14:50;;;;;;;5.18;1.25;;;2.70;99.90;;;;;;5041301;28;20024;-72
2023/01/17 06:17:16;;;;;;;6.28;1.20;;;2.70;99.90;;;;;;5037440;28;20014;-73
2023/01/17 06:19:41;;;;;;;8.48;1.35;;;2.70;99.90;;;;;;5036238;28;20490;-72
2023/01/17 06:22:07;;;;;;;7.90;1.30;;;2.60;99.90;;;;;;5036135;28;20104;-73
2023/01/17 06:24:32;;;;;;;7.60;1.40;;;2.60;99.90;;;;;;5036654;28;20100;-74
2023/01/17 06:26:58;;;;;;;7.55;1.45;;;2.60;99.90;;;;;;5037593;28;20024;-74
2023/01/17 06:29:24;;;;;;;8.13;1.35;;;2.60;99.90;;;;;;5033452;28;20372;-75
2023/01/17 06:31:50;;;;;;;6.18;1.50;;;2.60;99.90;;;;;;5034995;28;20029;-74
2023/01/17 06:34:16;;;;;;;7.15;1.55;;;2.50;99.90;;;;;;5034092;28;20017;-73
2023/01/17 06:36:42;;;;;;;6.78;1.20;;;2.60;99.90;;;;;;5038142;28;20024;-74
2023/01/17 06:39:09;;;;;;;6.70;1.10;;;2.50;99.90;;;;;;5041246;28;20424;-74
2023/01/17 06:41:34;;;;;;;10.05;1.40;;;2.50;99.90;;;;;;5047476;28;20025;-74
2023/01/17 06:44:00;;;;;;;8.00;1.23;;;2.50;99.90;;;;;;5044977;28;20475;-74
2023/01/17 06:46:26;;;;;;;7.57;1.23;;;2.50;99.90;;;;;;5047458;28;20040;-74
2023/01/17 06:48:51;;;;;;;6.93;1.30;;;2.40;99.90;;;;;;5043957;28;20056;-74
2023/01/17 06:51:17;;;;;;;3.00;0.95;;;2.40;99.90;;;;;;5047038;28;20029;-74
2023/01/17 06:53:42;;;;;;;10.40;1.45;;;2.40;99.90;;;;;;5038147;28;20017;-74
2023/01/17 06:56:08;;;;;;;4.03;1.30;;;2.40;99.90;;;;;;5042132;28;20067;-74
2023/01/17 06:58:34;;;;;;;6.45;0.90;;;2.40;99.90;;;;;;5040757;28;20102;-74
2023/01/17 07:01:08;;;;;;;5.57;1.27;;;2.30;99.90;;;;;;5048951;28;20450;-74
2023/01/17 07:03:33;;;;;;;3.97;1.25;;;2.30;99.90;;;;;;5042474;28;20087;-74
2023/01/17 07:06:02;;;;;;;5.15;1.00;;;2.30;99.90;;;;;;5046419;28;20476;-74
2023/01/17 07:08:28;;;;;;;2.72;0.90;;;2.30;99.90;;;;;;5040986;28;20033;-74
2023/01/17 07:10:59;;;;;;;2.67;0.90;;;2.20;99.90;;;;;;5039192;28;20084;-74
2023/01/17 07:13:26;;;;;;;4.72;1.38;;;2.20;99.90;;;;;;5049032;28;20038;-74
2023/01/17 07:15:51;;;;;;;4.47;1.05;;;2.20;99.90;;;;;;5043704;28;20021;-74
2023/01/17 07:18:22;;;;;;;8.68;1.27;;;2.20;99.90;;;;;;5045545;28;20022;-75
2023/01/17 07:20:48;;;;;;;5.60;1.20;;;2.20;99.90;;;;;;5041979;28;20091;-74
2023/01/17 07:23:14;;;;;;;4.93;1.23;;;2.10;99.90;;;;;;5044054;28;20021;-74
2023/01/17 07:25:39;;;;;;;8.25;1.30;;;2.10;99.90;;;;;;5042087;28;20477;-74
2023/01/17 07:28:05;;;;;;;5.50;1.13;;;2.10;99.90;;;;;;5047389;28;20488;-75
2023/01/17 07:30:30;;;;;;;2.17;1.33;;;2.10;99.90;;;;;;5037969;28;20412;-74
2023/01/17 07:32:56;;;;;;;5.90;1.42;;;2.10;99.90;;;;;;5049168;28;20043;-75
2023/01/17 07:35:25;;;;;;;5.75;1.35;;;2.00;99.90;;;;;;5031914;28;20048;-74
2023/01/17 07:37:50;;;;;;;4.03;1.52;;;2.00;99.90;;;;;;5013258;28;20061;-74
2023/01/17 07:40:17;;;;;;;5.30;1.45;;;2.00;99.90;;;;;;5041719;28;20053;-74
2023/01/17 07:42:43;;;;;;;4.53;1.40;;;1.90;99.90;;;;;;5034341;28;20327;-74
2023/01/17 07:45:10;;;;;;;6.72;1.27;;;1.90;99.90;;;;;;5033482;28;20081;-74
2023/01/17 07:47:36;;;;;;;4.63;1.50;;;1.90;99.90;;;;;;5043290;28;20050;-74
2023/01/17 07:50:02;;;;;;;3.45;1.40;;;1.80;99.90;;;;;;5025270;28;20021;-74
2023/01/17 07:52:28;;;;;;;6.05;1.60;;;1.80;99.90;;;;;;5047023;28;20032;-74
2023/01/17 07:54:53;;;;;;;5.78;1.40;;;1.80;99.90;;;;;;5046425;28;20017;-74
2023/01/17 07:57:19;;;;;;;2.42;1.27;;;1.80;99.90;;;;;;5052047;28;20032;-74
2023/01/17 07:59:45;;;;;;;5.75;1.50;;;1.70;99.90;;;;;;5045325;28;20054;-74
2023/01/17 08:02:21;;;;;;;5.70;1.50;;;1.80;99.90;;;;;;5052255;28;20060;-74
2023/01/17 08:04:47;;;;;;;4.35;1.42;;;1.70;99.90;;;;;;5052782;28;20064;-74
2023/01/17 08:07:13;;;;;;;4.30;1.98;;;1.70;99.90;;;;;;5051240;28;20060;-74
2023/01/17 08:09:42;;;;;;;5.85;1.88;;;1.60;99.90;;;;;;5044139;28;20033;-74
2023/01/17 08:12:08;;;;;;;5.18;1.65;;;1.60;99.90;;;;;;5044368;28;20032;-74
2023/01/17 08:14:34;;;;;;;4.95;1.75;;;1.60;99.90;;;;;;5046383;28;20117;-74
2023/01/17 08:17:09;;;;;;;4.90;1.60;;;1.60;99.90;;;;;;5047591;28;20092;-75
2023/01/17 08:19:34;;;;;;;;;;;1.60;99.90;;;;;;5049182;28;20029;-74
2023/01/17 08:22:00;;;;;;;7.53;1.85;;;1.50;99.90;;;;;;5053745;28;20279;-75
2023/01/17 08:24:25;;;;;;;8.50;1.60;;;1.50;99.90;;;;;;5041246;28;20056;-74
2023/01/17 08:26:53;;;;;;;8.55;1.92;;;1.50;99.90;;;;;;5047891;28;20068;-74
2023/01/17 08:29:19;;;;;;;6.68;1.83;;;1.50;99.90;;;;;;5037702;28;20036;-74
2023/01/17 08:31:45;;;;;;;5.03;1.70;;;1.50;99.90;;;;;;5043053;28;20435;-74
2023/01/17 08:34:12;;;;;;;9.13;2.00;;;1.50;99.90;;;;;;5038770;28;20033;-74
2023/01/17 08:36:38;;;;;;;9.60;2.00;;;1.50;99.90;;;;;;5036467;28;20028;-74
2023/01/17 08:39:04;;;;;;;6.45;1.60;;;1.50;99.90;;;;;;5045188;28;20018;-74
2023/01/17 08:41:31;;;;;;;3.22;1.88;;;1.50;99.90;;;;;;5038596;28;20036;-74
2023/01/17 08:43:56;;;;;;;2.97;1.80;;;1.60;99.90;;;;;;5035563;28;20380;-74
2023/01/17 08:46:23;;;;;;;3.45;1.80;;;1.60;99.90;;;;;;5033397;28;20026;-74
2023/01/17 08:48:54;;;;;;;5.97;1.80;;;1.60;99.90;;;;;;5041973;28;20045;-74
2023/01/17 08:51:20;;;;;;;4.43;1.60;;;1.60;99.90;;;;;;5046352;28;20460;-74
2023/01/17 08:53:47;;;;;;;4.80;1.70;;;1.60;99.90;;;;;;5052892;28;20104;-74
2023/01/17 08:56:13;;;;;;;7.03;1.98;;;1.60;99.90;;;;;;5042296;28;20029;-74
2023/01/17 08:58:40;;;;;;;5.20;1.63;;;1.70;99.90;;;;;;5038011;28;20022;-74
2023/01/17 09:01:06;;;;;;;2.35;1.60;;;1.70;99.90;;;;;;5052576;28;20029;-73
2023/01/17 09:03:33;;;;;;;5.40;2.00;;;1.80;99.90;;;;;;5050209;28;20029;-74
2023/01/17 09:06:07;;;;;;;5.93;1.60;;;1.80;99.90;;;;;;5045056;28;20025;-73
2023/01/17 09:08:33;;;;;;;4.30;1.93;;;1.90;99.90;;;;;;5047200;28;20029;-74
2023/01/17 09:11:07;;;;;;;7.22;1.90;;;1.90;99.90;;;;;;5035209;28;20041;-73
2023/01/17 09:13:43;;;;;;;5.63;1.80;;;2.00;99.90;;;;;;5052372;28;20064;-73
2023/01/17 09:16:09;;;;;;;5.38;2.08;;;2.00;99.90;;;;;;5022731;28;20496;-74
2023/01/17 09:18:35;;;;;;;4.38;1.95;;;2.00;99.90;;;;;;5040118;28;20113;-74
2023/01/17 09:21:11;;;;;;;5.70;2.15;;;2.10;99.90;;;;;;5033399;28;20030;-73
2023/01/17 09:23:37;;;;;;;5.50;1.90;;;2.10;99.90;;;;;;5033020;28;20037;-74
2023/01/17 09:26:02;;;;;;;5.25;1.90;;;2.20;99.90;;;;;;5044892;28;20023;-73
2023/01/17 09:28:28;;;;;;;4.57;2.10;;;2.20;99.90;;;;;;5050289;28;20100;-73
2023/01/17 09:30:54;;;;;;;5.68;1.90;;;2.20;99.90;;;;;;5034382;28;20025;-73
2023/01/17 09:33:22;;;;;;;6.82;2.10;;;2.20;99.90;;;;;;5044299;28;20052;-73
2023/01/17 09:35:47;;;;;;;5.68;2.10;;;2.20;99.90;;;;;;5043141;28;20017;-73
2023/01/17 09:38:13;;;;;;;4.47;2.00;;;2.20;99.90;;;;;;5048533;28;20476;-73
2023/01/17 09:40:45;;;;;;;4.70;1.92;;;2.20;99.90;;;;;;5050003;28;20033;-73
2023/01/17 09:43:36;;;;;;;4.13;1.88;;;2.30;99.90;;;;;;5051404;28;20559;-73
2023/01/17 09:46:04;;;;;;;4.43;2.00;;;2.30;99.90;;;;;;5051069;28;20113;-73
2023/01/17 09:48:38;;;;;;;5.53;2.15;;;2.30;99.90;;;;;;5047967;28;20037;-73
2023/01/17 09:51:13;;;;;;;3.67;2.23;;;2.30;99.90;;;;;;5049572;28;20030;-73
2023/01/17 09:53:40;;;;;;;7.10;2.05;;;2.30;99.90;;;;;;5048933;28;20025;-73
2023/01/17 09:56:08;;;;;;;5.18;2.35;;;2.40;99.90;;;;;;5051369;28;20035;-73
2023/01/17 09:58:42;;;;;;;6.85;2.00;;;2.40;99.90;;;;;;5045007;28;20105;-73
2023/01/17 10:01:21;;;;;;;4.30;1.73;;;2.40;99.90;;;;;;5050452;28;20417;-73
2023/01/17 10:03:55;;;;;;;9.23;1.90;;;2.40;99.90;;;;;;5049414;28;20052;-73
2023/01/17 10:06:48;;;;;;;4.75;2.08;;;2.40;99.90;;;;;;5051061;28;20017;-73
2023/01/17 10:09:41;;;;;;;3.97;2.05;;;2.50;99.90;;;;;;5033071;28;20040;-73
2023/01/17 10:12:17;;;;;;;6.40;1.88;;;2.50;99.90;;;;;;5041583;28;20036;-73
2023/01/17 10:15:07;;;;;;;5.47;1.65;;;2.50;99.90;;;;;;5050970;28;20082;-73
2023/01/17 10:17:52;;;;;;;3.38;2.08;;;2.50;99.90;;;;;;5051040;28;20059;-73
2023/01/17 10:20:37;;;;;;;6.05;2.00;;;2.60;99.90;;;;;;5051849;28;20387;-73
2023/01/17 10:23:39;;;;;;;9.63;2.05;;;2.70;99.90;;;;;;5036003;28;20109;-73
2023/01/17 10:26:14;;;;;;;3.60;2.30;;;2.80;99.90;;;;;;5047152;28;20044;-73
2023/01/17 10:28:45;;;;;;;;;;;2.90;99.90;;;;;;5048633;28;20111;-73
2023/01/17 10:31:19;;;;;;;3.53;1.95;;;3.00;99.90;;;;;;5046522;28;20391;-73
2023/01/17 10:33:53;;;;;;;8.68;2.50;;;3.10;99.90;;;;;;5050034;28;20234;-73
2023/01/17 10:36:23;;;;;;;4.20;2.10;;;3.20;99.90;;;;;;5050448;28;20025;-73
2023/01/17 10:39:01;;;;;;;4.00;2.05;;;3.30;99.90;;;;;;5030961;28;20091;-73
2023/01/17 10:41:38;;;;;;;4.90;2.28;;;3.40;99.90;;;;;;5032083;28;20391;-73
2023/01/17 10:44:21;;;;;;;3.10;2.08;;;3.40;99.90;;;;;;5041297;28;20068;-73
2023/01/17 10:47:09;;;;;;;4.57;1.98;;;3.40;99.90;;;;;;5051023;28;20507;-73
2023/01/17 10:49:43;;;;;;;3.22;1.95;;;3.50;99.90;;;;;;5038531;28;20037;-73
2023/01/17 10:52:15;;;;;;;3.45;1.70;;;3.40;99.90;;;;;;5037118;28;20062;-73
2023/01/17 10:55:02;;;;;;;3.85;2.17;;;3.40;99.90;;;;;;5051044;28;20024;-73
2023/01/17 10:57:31;;;;;;;6.40;2.15;;;3.40;99.90;;;;;;5036905;28;20029;-73
2023/01/17 10:59:59;;;;;;;4.20;1.95;;;3.40;99.90;;;;;;5046493;28;20075;-73
2023/01/17 11:02:32;;;;;;;5.30;1.75;;;3.40;99.90;;;;;;5038582;28;20035;-73
2023/01/17 11:05:04;;;;;;;5.72;1.80;;;3.40;99.90;;;;;;5047753;28;20533;-73
2023/01/17 11:07:29;;;;;;;5.25;1.95;;;3.40;99.90;;;;;;5045256;28;20026;-73
2023/01/17 11:09:57;;;;;;;4.20;1.50;;;3.50;99.90;;;;;;5038574;28;20017;-73
2023/01/17 11:12:31;;;;;;;5.40;1.70;;;3.60;99.90;;;;;;5029906;28;20033;-73
2023/01/17 11:15:08;;;;;;;4.60;2.70;;;3.70;99.90;;;;;;5041428;28;20040;-73
2023/01/17 11:17:59;;;;;;;7.10;1.65;;;3.80;99.90;;;;;;5035613;28;20260;-73
2023/01/17 11:20:41;;;;;;;3.20;1.50;;;3.90;99.90;;;;;;5034880;28;20029;-73
2023/01/17 11:23:13;;;;;;;3.08;1.38;;;4.00;99.90;;;;;;5034926;28;20053;-73
2023/01/17 11:25:39;;;;;;;3.40;1.17;;;4.10;99.90;;;;;;5037715;28;20032;-73
2023/01/17 11:28:18;;;;;;;4.13;1.50;;;4.20;99.90;;;;;;5041359;28;20024;-73
2023/01/17 11:30:54;;;;;;;3.42;1.33;;;4.30;99.90;;;;;;5032573;28;20029;-72
2023/01/17 11:33:44;;;;;;;4.10;1.40;;;4.40;99.90;;;;;;5032767;28;20037;-73
2023/01/17 11:36:26;;;;;;;3.50;1.50;;;4.40;99.90;;;;;;5034317;28;20065;-72
2023/01/17 11:38:57;;;;;;;4.38;1.30;;;4.50;99.90;;;;;;5036007;28;20536;-73
2023/01/17 11:41:24;;;;;;;3.40;1.40;;;4.70;99.90;;;;;;5039360;28;20492;-73
2023/01/17 11:43:57;;;;;;;2.60;1.05;;;4.70;99.90;;;;;;5037534;28;20059;-73
2023/01/17 11:46:24;;;;;;;1.58;1.10;;;4.70;99.90;;;;;;5025189;28;20032;-73
2023/01/17 11:48:55;;;;;;;3.60;1.20;;;4.80;99.90;;;;;;5030330;28;20052;-72
2023/01/17 11:51:32;;;;;;;2.50;0.90;;;4.80;99.90;;;;;;5048322;28;20040;-72
2023/01/17 11:54:14;;;;;;;2.22;1.20;;;4.90;99.90;;;;;;5043239;28;20075;-72
2023/01/17 11:56:43;;;;;;;3.10;1.05;;;4.90;99.90;;;;;;5044620;28;20112;-72
2023/01/17 11:59:32;;;;;;;8.20;1.58;;;5.00;99.90;;;;;;5049876;28;20056;-72
2023/01/17 12:02:15;;;;;;;3.67;1.15;;;5.10;99.90;;;;;;5044427;28;20029;-72
2023/01/17 12:05:00;;;;;;;2.88;1.10;;;5.10;99.90;;;;;;5046810;28;20159;-72
2023/01/17 12:07:46;;;;;;;2.85;0.80;;;5.10;99.90;;;;;;5043353;28;20519;-72
2023/01/17 12:10:33;;;;;;;3.25;1.02;;;5.20;99.90;;;;;;5044238;28;20021;-72
2023/01/17 12:16:31;;;;;;;2.75;0.90;;;5.20;99.90;;;;;;5036900;28;20067;-74
2023/01/17 12:19:31;;;;;;;2.00;0.68;;;5.20;99.90;;;;;;5038031;28;20037;-74
2023/01/17 12:22:20;;;;;;;3.72;0.93;;;5.30;99.90;;;;;;5035415;28;20078;-75
2023/01/17 12:25:04;;;;;;;1.80;0.80;;;5.20;99.90;;;;;;5031446;28;20072;-74
2023/01/17 12:27:51;;;;;;;2.92;0.90;;;5.20;99.90;;;;;;5049864;28;20025;-72
2023/01/17 12:30:55;;;;;;;2.38;0.80;;;5.20;99.90;;;;;;5047009;28;20041;-74
2023/01/17 12:33:39;;;;;;;5.32;1.05;;;5.20;99.90;;;;;;5040832;28;20087;-73
2023/01/17 12:36:29;;;;;;;1.85;0.95;;;5.20;99.90;;;;;;5049593;28;20092;-73
2023/01/17 12:38:59;;;;;;;3.22;1.00;;;5.20;99.90;;;;;;5019039;28;20108;-72
2023/01/17 12:41:35;;;;;;;2.58;0.80;;;5.30;99.90;;;;;;5037344;28;20148;-73
2023/01/17 12:44:01;;;;;;;2.28;0.75;;;5.30;99.90;;;;;;5041586;28;20027;-73
2023/01/17 12:46:37;;;;;;;2.67;0.82;;;5.30;99.90;;;;;;5053159;28;20376;-73
2023/01/17 12:49:21;;;;;;;2.47;0.80;;;5.40;99.90;;;;;;5053345;28;20041;-72
2023/01/17 12:51:58;;;;;;;1.98;0.88;;;5.40;99.90;;;;;;5052685;28;20071;-73
2023/01/17 12:54:41;;;;;;;1.08;0.80;;;5.40;99.90;;;;;;5039005;28;20044;-73
2023/01/17 12:57:21;;;;;;;3.03;0.82;;;5.30;99.90;;;;;;5046319;28;20391;-73
2023/01/17 13:00:18;;;;;;;1.27;0.80;;;5.40;99.90;;;;;;5044113;28;20037;-73
2023/01/17 13:02:46;;;;;;;2.45;0.70;;;5.40;99.90;;;;;;5037272;28;20036;-73
2023/01/17 13:05:22;;;;;;;2.30;0.90;;;5.30;99.90;;;;;;5034860;28;20395;-73
2023/01/17 13:08:13;;;;;;;4.05;0.93;;;5.30;99.90;;;;;;5052975;28;20017;-73
2023/01/17 13:10:50;;;;;;;3.55;0.80;;;5.30;99.90;;;;;;5052382;28;20064;-73
2023/01/17 13:13:27;;;;;;;4.10;0.77;;;5.30;99.90;;;;;;5053566;28;20075;-73
2023/01/17 13:15:57;;;;;;;1.95;0.88;;;5.40;99.90;;;;;;5052577;28;20060;-73
2023/01/17 13:18:28;;;;;;;2.25;0.70;;;5.40;99.90;;;;;;5038906;28;20032;-73
2023/01/17 13:21:04;;;;;;;1.85;0.95;;;5.40;99.90;;;;;;5053035;28;20027;-73
2023/01/17 13:23:45;;;;;;;3.30;0.82;;;5.40;99.90;;;;;;5033219;28;20028;-73
2023/01/17 13:26:25;;;;;;;3.58;1.13;;;5.40;99.90;;;;;;5046275;28;20143;-72
2023/01/17 13:29:07;;;;;;;1.13;0.80;;;5.40;99.90;;;;;;5040045;28;20025;-73
2023/01/17 13:31:44;;;;;;;4.22;0.82;;;5.40;99.90;;;;;;5033486;28;20087;-73
2023/01/17 13:34:12;;;;;;;1.65;0.88;;;5.50;99.90;;;;;;5042793;28;20104;-73
2023/01/17 13:36:46;;;;;;;1.25;0.73;;;5.50;99.90;;;;;;5031180;28;20612;-73
2023/01/17 13:39:24;;;;;;;3.20;0.80;;;5.50;99.90;;;;;;5044205;28;20033;-73
2023/01/17 13:41:53;;;;;;;1.40;0.82;;;5.50;99.90;;;;;;5051579;28;20066;-73
2023/01/17 13:44:23;;;;;;;2.17;1.00;;;5.50;99.90;;;;;;5045317;28;20026;-73
2023/01/17 13:47:07;;;;;;;1.05;0.70;;;5.50;99.90;;;;;;5049832;28;20021;-73
2023/01/17 13:49:38;;;;;;;2.63;0.73;;;5.50;99.90;;;;;;5043938;28;20033;-73
2023/01/17 13:52:17;;;;;;;1.02;0.60;;;5.50;99.90;;;;;;5051542;28;20112;-73
2023/01/17 13:54:43;;;;;;;1.67;0.93;;;5.60;99.90;;;;;;5039083;28;20036;-72
2023/01/17 13:57:24;;;;;;;2.95;0.80;;;5.50;99.90;;;;;;5047849;28;20021;-72
2023/01/17 13:59:51;;;;;;;2.03;0.82;;;5.60;99.90;;;;;;5049588;28;20025;-72
2023/01/17 14:02:32;;;;;;;1.42;0.80;;;5.50;99.90;;;;;;5041213;28;20078;-72
2023/01/17 14:05:09;;;;;;;1.63;0.73;;;5.50;99.90;;;;;;5039994;28;20408;-73
2023/01/17 14:07:58;;;;;;;1.65;0.80;;;5.50;99.90;;;;;;5030692;28;20103;-73
2023/01/17 14:10:29;;;;;;;2.15;0.80;;;5.50;99.90;;;;;;5036092;28;20032;-73
2023/01/17 14:12:55;;;;;;;0.95;0.70;;;5.40;99.90;;;;;;5033587;28;20034;-73
2023/01/17 14:15:26;;;;;;;4.15;0.90;;;5.40;99.90;;;;;;5039307;28;20017;-73
2023/01/17 14:18:03;;;;;;;2.15;0.70;;;5.40;99.90;;;;;;5051269;28;20032;-73
2023/01/17 14:20:38;;;;;;;2.00;0.70;;;5.40;99.90;;;;;;5040568;28;20057;-73
2023/01/17 14:23:21;;;;;;;2.65;0.70;;;5.30;99.90;;;;;;5049085;28;20029;-73
2023/01/17 14:25:49;;;;;;;3.70;1.00;;;5.30;99.90;;;;;;5041670;28;20028;-73
2023/01/17 14:28:20;;;;;;;1.40;0.90;;;5.30;99.90;;;;;;5051367;28;20076;-73
2023/01/17 14:30:53;;;;;;;1.55;0.80;;;5.20;99.90;;;;;;5042671;28;20500;-73
2023/01/17 14:33:26;;;;;;;2.35;0.90;;;5.20;99.90;;;;;;5047624;28;20384;-73
2023/01/17 14:35:59;;;;;;;3.20;0.77;;;5.10;99.90;;;;;;5038957;28;20021;-73
2023/01/17 14:38:32;;;;;;;2.78;0.80;;;5.10;99.90;;;;;;5049592;28;20119;-73
2023/01/17 14:41:01;;;;;;;3.65;1.08;;;5.00;99.90;;;;;;5028647;28;20045;-73
2023/01/17 14:43:31;;;;;;;3.15;1.17;;;4.90;99.90;;;;;;5044555;28;20016;-73
2023/01/17 14:46:03;;;;;;;2.58;0.70;;;4.90;99.90;;;;;;5045993;28;20025;-73